Time,TemperatureF,DewpointF,PressureIn,WindDirection,WindDirectionDegrees,WindSpeedMPH,WindSpeedGustMPH,Humidity,HourlyPrecipIn,Conditions,Clouds,dailyrainin,SoftwareType,DateUTC
2013-01-30 00:05:00,56.0,53.7,29.49,SSW,193,7.0,8.0,92,0.00,,,0.00,Wunderground v.1.15,2013-01-30 05:05:00,
2013-01-30 00:10:00,56.1,53.8,29.48,SW,214,7.0,7.0,92,0.00,,,0.00,Wunderground v.1.15,2013-01-30 05:10:00,
2013-01-30 00:15:00,56.0,53.7,29.48,South,174,6.0,8.0,92,0.00,,,0.00,Wunderground v.1.15,2013-01-30 05:15:00,
2013-01-30 00:20:00,55.8,53.5,29.47,SSE,150,5.0,10.0,92,0.00,,,0.01,Wunderground v.1.15,2013-01-30 05:20:00,
2013-01-30 00:25:00,55.7,53.7,29.47,SSW,201,6.0,10.0,93,0.00,,,0.01,Wunderground v.1.15,2013-01-30 05:25:00,
2013-01-30 00:30:00,55.6,53.6,29.46,SW,233,6.0,6.0,93,0.00,,,0.01,Wunderground v.1.15,2013-01-30 05:30:00,
2013-01-30 00:40:00,55.3,53.6,29.45,SSW,200,5.0,7.0,94,0.00,,,0.01,Wunderground v.1.15,2013-01-30 05:40:00,
2013-01-30 00:45:00,55.3,53.6,29.45,South,169,5.0,7.0,94,0.00,,,0.01,Wunderground v.1.15,2013-01-30 05:45:00,
2013-01-30 00:50:00,55.3,53.6,29.44,SW,224,5.0,5.0,94,0.00,,,0.01,Wunderground v.1.15,2013-01-30 05:50:00,
2013-01-30 00:55:00,55.2,53.5,29.43,South,180,4.0,5.0,94,0.00,,,0.01,Wunderground v.1.15,2013-01-30 05:55:00,
2013-01-30 01:00:00,55.3,53.6,29.42,SW,225,4.0,4.0,94,0.00,,,0.01,Wunderground v.1.15,2013-01-30 06:00:00,
2013-01-30 01:10:00,55.5,53.8,29.42,South,172,5.0,5.0,94,0.00,,,0.01,Wunderground v.1.15,2013-01-30 06:10:00,
2013-01-30 01:15:00,55.7,54.0,29.41,South,181,6.0,6.0,94,0.00,,,0.01,Wunderground v.1.15,2013-01-30 06:15:00,
2013-01-30 01:20:00,55.8,54.1,29.41,SSE,148,5.0,10.0,94,0.00,,,0.01,Wunderground v.1.15,2013-01-30 06:20:00,
2013-01-30 01:25:00,56.0,54.3,29.40,SW,222,5.0,10.0,94,0.00,,,0.01,Wunderground v.1.15,2013-01-30 06:25:00,
2013-01-30 01:30:00,56.2,54.5,29.39,SSW,197,5.0,6.0,94,0.00,,,0.01,Wunderground v.1.15,2013-01-30 06:30:00,
2013-01-30 01:40:00,57.2,55.2,29.38,SSE,162,5.0,5.0,93,0.00,,,0.01,Wunderground v.1.15,2013-01-30 06:40:00,
2013-01-30 01:45:00,57.6,55.6,29.38,SE,142,6.0,7.0,93,0.00,,,0.01,Wunderground v.1.15,2013-01-30 06:45:00,
2013-01-30 01:50:00,57.9,55.9,29.38,West,270,5.0,5.0,93,0.35,,,0.03,Wunderground v.1.15,2013-01-30 06:50:00,
2013-01-30 01:55:00,58.3,56.3,29.36,SSW,212,5.0,5.0,93,0.10,,,0.03,Wunderground v.1.15,2013-01-30 06:55:00,
2013-01-30 02:00:00,58.6,56.6,29.36,South,185,6.0,6.0,93,0.05,,,0.03,Wunderground v.1.15,2013-01-30 07:00:00,
2013-01-30 02:10:00,59.2,56.6,29.35,SE,145,7.0,7.0,91,0.00,,,0.03,Wunderground v.1.15,2013-01-30 07:10:00,
2013-01-30 02:15:00,59.4,56.8,29.35,SSW,201,7.0,8.0,91,0.00,,,0.03,Wunderground v.1.15,2013-01-30 07:15:00,
2013-01-30 02:20:00,59.7,56.8,29.35,South,183,8.0,11.0,90,0.00,,,0.03,Wunderground v.1.15,2013-01-30 07:20:00,
2013-01-30 02:30:00,60.0,56.7,29.33,SW,215,7.0,11.0,89,0.00,,,0.03,Wunderground v.1.15,2013-01-30 07:30:00,
2013-01-30 02:35:00,60.4,57.1,29.34,SSE,168,9.0,16.0,89,0.00,,,0.03,Wunderground v.1.15,2013-01-30 07:35:00,
2013-01-30 02:40:00,60.6,57.0,29.34,East,94,9.0,9.0,88,0.00,,,0.03,Wunderground v.1.15,2013-01-30 07:40:00,
2013-01-30 02:45:00,60.7,57.1,29.33,South,191,7.0,9.0,88,0.00,,,0.03,Wunderground v.1.15,2013-01-30 07:45:00,
2013-01-30 02:50:00,60.9,57.3,29.32,SSW,200,8.0,12.0,88,0.00,,,0.03,Wunderground v.1.15,2013-01-30 07:50:00,
2013-01-30 03:00:00,61.5,57.6,29.32,WSW,251,9.0,22.0,87,0.00,,,0.03,Wunderground v.1.15,2013-01-30 08:00:00,
2013-01-30 03:05:00,61.3,57.7,29.32,West,264,8.0,22.0,88,0.00,,,0.03,Wunderground v.1.15,2013-01-30 08:05:00,
2013-01-30 03:10:00,61.2,57.9,29.31,WSW,243,8.0,8.0,89,0.00,,,0.04,Wunderground v.1.15,2013-01-30 08:10:00,
2013-01-30 03:15:00,61.4,57.8,29.31,WSW,238,8.0,10.0,88,0.00,,,0.04,Wunderground v.1.15,2013-01-30 08:15:00,
2013-01-30 03:20:00,61.4,57.8,29.30,SW,221,8.0,8.0,88,0.00,,,0.04,Wunderground v.1.15,2013-01-30 08:20:00,
2013-01-30 03:30:00,61.8,57.9,29.30,SE,124,8.0,8.0,87,0.00,,,0.04,Wunderground v.1.15,2013-01-30 08:30:00,
2013-01-30 03:35:00,62.2,58.0,29.30,SW,229,9.0,9.0,86,0.00,,,0.04,Wunderground v.1.15,2013-01-30 08:35:00,
2013-01-30 03:40:00,62.1,57.9,29.29,South,173,8.0,8.0,86,0.00,,,0.04,Wunderground v.1.15,2013-01-30 08:40:00,
2013-01-30 03:50:00,62.2,58.0,29.28,South,180,8.0,10.0,86,0.00,,,0.04,Wunderground v.1.15,2013-01-30 08:50:00,
2013-01-30 03:55:00,62.4,57.8,29.28,South,177,8.0,12.0,85,0.00,,,0.04,Wunderground v.1.15,2013-01-30 08:55:00,
2013-01-30 04:05:00,62.2,58.0,29.30,WSW,252,8.0,13.0,86,0.00,,,0.04,Wunderground v.1.15,2013-01-30 09:05:00,
2013-01-30 04:10:00,61.1,57.5,29.32,WSW,249,6.0,6.0,88,0.69,,,0.09,Wunderground v.1.15,2013-01-30 09:10:00,
2013-01-30 04:15:00,58.7,55.8,29.31,WNW,295,5.0,6.0,90,0.16,,,0.11,Wunderground v.1.15,2013-01-30 09:15:00,
2013-01-30 04:20:00,57.2,54.9,29.32,WNW,290,4.0,4.0,92,0.10,,,0.11,Wunderground v.1.15,2013-01-30 09:20:00,
2013-01-30 04:25:00,56.3,54.3,29.32,West,281,3.0,4.0,93,0.07,,,0.12,Wunderground v.1.15,2013-01-30 09:25:00,
2013-01-30 04:30:00,55.6,53.6,29.32,NNW,332,3.0,4.0,93,0.07,,,0.12,Wunderground v.1.15,2013-01-30 09:30:00,
2013-01-30 04:40:00,54.6,52.9,29.33,WNW,293,3.0,3.0,94,0.04,,,0.12,Wunderground v.1.15,2013-01-30 09:40:00,
2013-01-30 04:45:00,54.2,52.5,29.33,NW,308,3.0,3.0,94,0.00,,,0.12,Wunderground v.1.15,2013-01-30 09:45:00,
2013-01-30 04:50:00,53.9,52.2,29.32,ENE,63,3.0,3.0,94,0.00,,,0.13,Wunderground v.1.15,2013-01-30 09:50:00,
2013-01-30 04:55:00,53.7,52.0,29.33,West,278,2.0,3.0,94,0.00,,,0.13,Wunderground v.1.15,2013-01-30 09:55:00,
2013-01-30 05:00:00,53.4,52.0,29.33,WNW,300,2.0,5.0,95,0.04,,,0.13,Wunderground v.1.15,2013-01-30 10:00:00,
2013-01-30 05:10:00,53.0,51.6,29.32,NNW,344,2.0,4.0,95,0.04,,,0.14,Wunderground v.1.15,2013-01-30 10:10:00,
2013-01-30 05:15:00,52.8,51.4,29.32,West,277,1.0,4.0,95,0.04,,,0.14,Wunderground v.1.15,2013-01-30 10:15:00,
2013-01-30 05:20:00,52.5,51.1,29.33,WSW,253,1.0,1.0,95,0.04,,,0.15,Wunderground v.1.15,2013-01-30 10:20:00,
2013-01-30 05:25:00,52.3,51.2,29.33,WSW,253,0.0,1.0,96,0.04,,,0.15,Wunderground v.1.15,2013-01-30 10:25:00,
2013-01-30 05:35:00,52.0,50.9,29.34,WNW,294,0.0,1.0,96,0.16,,,0.17,Wunderground v.1.15,2013-01-30 10:35:00,
2013-01-30 05:40:00,51.9,51.1,29.35,West,259,0.0,0.0,97,0.13,,,0.18,Wunderground v.1.15,2013-01-30 10:40:00,
2013-01-30 05:45:00,51.8,51.0,29.36,WNW,287,1.0,1.0,97,0.10,,,0.19,Wunderground v.1.15,2013-01-30 10:45:00,
2013-01-30 05:50:00,51.8,51.0,29.37,West,262,1.0,2.0,97,0.11,,,0.20,Wunderground v.1.15,2013-01-30 10:50:00,
2013-01-30 05:55:00,51.7,50.9,29.37,WNW,287,1.0,2.0,97,0.16,,,0.21,Wunderground v.1.15,2013-01-30 10:55:00,
2013-01-30 06:00:00,51.7,50.9,29.36,WNW,285,2.0,2.0,97,0.12,,,0.22,Wunderground v.1.15,2013-01-30 11:00:00,
2013-01-30 06:10:00,51.4,50.6,29.36,West,271,1.0,1.0,97,0.08,,,0.23,Wunderground v.1.15,2013-01-30 11:10:00,
2013-01-30 06:15:00,51.3,50.5,29.36,WSW,250,1.0,1.0,97,0.05,,,0.23,Wunderground v.1.15,2013-01-30 11:15:00,
2013-01-30 06:20:00,51.2,50.4,29.35,West,271,1.0,1.0,97,0.05,,,0.24,Wunderground v.1.15,2013-01-30 11:20:00,
2013-01-30 06:25:00,51.0,50.2,29.35,WSW,256,0.0,1.0,97,0.05,,,0.24,Wunderground v.1.15,2013-01-30 11:25:00,
2013-01-30 06:30:00,51.1,50.3,29.35,West,259,0.0,0.0,97,0.04,,,0.24,Wunderground v.1.15,2013-01-30 11:30:00,
2013-01-30 06:40:00,50.8,50.0,29.35,SW,226,0.0,0.0,97,0.00,,,0.25,Wunderground v.1.15,2013-01-30 11:40:00,
2013-01-30 06:45:00,50.8,50.0,29.34,SW,228,0.0,0.0,97,0.07,,,0.26,Wunderground v.1.15,2013-01-30 11:45:00,
2013-01-30 06:50:00,50.6,49.8,29.34,SW,228,0.0,0.0,97,0.07,,,0.26,Wunderground v.1.15,2013-01-30 11:50:00,
2013-01-30 06:55:00,50.6,49.8,29.33,SW,225,0.0,0.0,97,0.07,,,0.27,Wunderground v.1.15,2013-01-30 11:55:00,
2013-01-30 07:00:00,50.6,49.8,29.31,ESE,120,1.0,2.0,97,0.13,,,0.28,Wunderground v.1.15,2013-01-30 12:00:00,
2013-01-30 07:10:00,50.2,49.4,29.33,WSW,242,1.0,1.0,97,0.08,,,0.29,Wunderground v.1.15,2013-01-30 12:10:00,
2013-01-30 07:15:00,50.2,49.4,29.34,WSW,252,0.0,1.0,97,0.05,,,0.29,Wunderground v.1.15,2013-01-30 12:15:00,
2013-01-30 07:25:00,50.1,49.6,29.34,West,260,0.0,0.0,98,0.00,,,0.29,Wunderground v.1.15,2013-01-30 12:25:00,
2013-01-30 07:30:00,50.2,49.7,29.33,South,180,0.0,0.0,98,0.00,,,0.29,Wunderground v.1.15,2013-01-30 12:30:00,
2013-01-30 07:35:00,50.0,49.5,29.33,South,180,0.0,0.0,98,0.00,,,0.29,Wunderground v.1.15,2013-01-30 12:35:00,
2013-01-30 07:40:00,50.0,49.5,29.32,SE,142,0.0,0.0,98,0.00,,,0.29,Wunderground v.1.15,2013-01-30 12:40:00,
2013-01-30 07:50:00,49.9,49.4,29.32,South,172,1.0,1.0,98,0.00,,,0.29,Wunderground v.1.15,2013-01-30 12:50:00,
2013-01-30 07:55:00,49.9,49.4,29.32,South,173,1.0,2.0,98,0.00,,,0.29,Wunderground v.1.15,2013-01-30 12:55:00,
2013-01-30 08:00:00,49.8,49.3,29.29,SE,129,2.0,2.0,98,0.00,,,0.29,Wunderground v.1.15,2013-01-30 13:00:00,
2013-01-30 08:05:00,49.9,49.4,29.28,SE,134,2.0,2.0,98,0.00,,,0.29,Wunderground v.1.15,2013-01-30 13:05:00,
2013-01-30 08:10:00,49.9,49.4,29.28,SE,139,2.0,2.0,98,0.00,,,0.29,Wunderground v.1.15,2013-01-30 13:10:00,
2013-01-30 08:15:00,49.9,49.4,29.29,South,190,2.0,2.0,98,0.00,,,0.29,Wunderground v.1.15,2013-01-30 13:15:00,
2013-01-30 08:25:00,49.8,49.3,29.29,SSE,152,1.0,2.0,98,0.00,,,0.29,Wunderground v.1.15,2013-01-30 13:25:00,
2013-01-30 08:30:00,49.9,49.4,29.29,SE,142,2.0,2.0,98,0.00,,,0.29,Wunderground v.1.15,2013-01-30 13:30:00,
2013-01-30 08:35:00,49.8,49.3,29.28,SE,141,3.0,3.0,98,0.00,,,0.29,Wunderground v.1.15,2013-01-30 13:35:00,
2013-01-30 08:40:00,49.9,49.4,29.28,South,187,3.0,3.0,98,0.00,,,0.29,Wunderground v.1.15,2013-01-30 13:40:00,
2013-01-30 08:45:00,49.9,49.4,29.28,South,176,3.0,3.0,98,0.00,,,0.29,Wunderground v.1.15,2013-01-30 13:45:00,
2013-01-30 08:50:00,49.9,49.4,29.29,WSW,242,2.0,2.0,98,0.00,,,0.29,Wunderground v.1.15,2013-01-30 13:50:00,
2013-01-30 09:00:00,49.9,49.4,29.28,WSW,250,1.0,1.0,98,0.00,,,0.29,Wunderground v.1.15,2013-01-30 14:00:00,
2013-01-30 09:05:00,49.9,49.4,29.27,SW,228,0.0,1.0,98,0.00,,,0.29,Wunderground v.1.15,2013-01-30 14:05:00,
2013-01-30 09:10:00,49.9,49.4,29.26,SE,130,1.0,1.0,98,0.00,,,0.29,Wunderground v.1.15,2013-01-30 14:10:00,
2013-01-30 09:15:00,49.9,49.4,29.25,SSE,152,2.0,2.0,98,0.00,,,0.29,Wunderground v.1.15,2013-01-30 14:15:00,
2013-01-30 09:20:00,49.9,49.4,29.29,West,264,2.0,2.0,98,0.00,,,0.29,Wunderground v.1.15,2013-01-30 14:20:00,
2013-01-30 09:25:00,49.8,49.3,29.29,SW,222,1.0,2.0,98,0.00,,,0.29,Wunderground v.1.15,2013-01-30 14:25:00,
2013-01-30 09:35:00,49.9,49.4,29.27,SSE,160,2.0,4.0,98,0.00,,,0.29,Wunderground v.1.15,2013-01-30 14:35:00,
2013-01-30 09:45:00,50.0,49.5,29.29,SSW,203,3.0,3.0,98,0.00,,,0.29,Wunderground v.1.15,2013-01-30 14:45:00,
2013-01-30 09:50:00,50.1,49.6,29.29,South,185,2.0,4.0,98,0.00,,,0.29,Wunderground v.1.15,2013-01-30 14:50:00,
2013-01-30 10:00:00,50.1,49.6,29.32,West,262,2.0,3.0,98,0.00,,,0.29,Wunderground v.1.15,2013-01-30 15:00:00,
2013-01-30 10:05:00,50.1,49.6,29.31,WSW,252,2.0,3.0,98,0.00,,,0.29,Wunderground v.1.15,2013-01-30 15:05:00,
2013-01-30 10:10:00,50.1,49.6,29.30,ESE,105,2.0,2.0,98,0.00,,,0.29,Wunderground v.1.15,2013-01-30 15:10:00,
2013-01-30 10:15:00,50.1,49.6,29.31,West,281,1.0,2.0,98,0.00,,,0.29,Wunderground v.1.15,2013-01-30 15:15:00,
2013-01-30 10:20:00,50.1,49.6,29.32,West,260,1.0,2.0,98,0.00,,,0.29,Wunderground v.1.15,2013-01-30 15:20:00,
2013-01-30 10:25:00,50.3,49.8,29.33,SSW,208,2.0,2.0,98,0.00,,,0.29,Wunderground v.1.15,2013-01-30 15:25:00,
2013-01-30 10:35:00,50.6,50.1,29.35,South,184,2.0,2.0,98,0.00,,,0.29,Wunderground v.1.15,2013-01-30 15:35:00,
2013-01-30 10:40:00,50.7,50.2,29.35,West,266,2.0,2.0,98,0.00,,,0.29,Wunderground v.1.15,2013-01-30 15:40:00,
2013-01-30 10:45:00,50.8,50.3,29.33,West,275,2.0,2.0,98,0.00,,,0.29,Wunderground v.1.15,2013-01-30 15:45:00,
2013-01-30 10:55:00,50.8,50.3,29.33,SW,228,2.0,2.0,98,0.00,,,0.29,Wunderground v.1.15,2013-01-30 15:55:00,
2013-01-30 11:00:00,50.8,50.3,29.33,West,263,2.0,2.0,98,0.00,,,0.29,Wunderground v.1.15,2013-01-30 16:00:00,
2013-01-30 11:10:00,50.8,50.3,29.31,NE,40,2.0,2.0,98,0.00,,,0.29,Wunderground v.1.15,2013-01-30 16:10:00,
2013-01-30 11:15:00,50.9,50.4,29.31,WSW,245,2.0,2.0,98,0.00,,,0.29,Wunderground v.1.15,2013-01-30 16:15:00,
2013-01-30 11:20:00,50.9,50.1,29.32,SSW,203,2.0,2.0,97,0.00,,,0.29,Wunderground v.1.15,2013-01-30 16:20:00,
2013-01-30 11:30:00,51.3,50.5,29.30,SW,219,1.0,1.0,97,0.00,,,0.29,Wunderground v.1.15,2013-01-30 16:30:00,
2013-01-30 11:35:00,51.6,50.8,29.29,WNW,283,2.0,2.0,97,0.00,,,0.29,Wunderground v.1.15,2013-01-30 16:35:00,
2013-01-30 11:40:00,51.8,50.7,29.28,WSW,238,2.0,2.0,96,0.00,,,0.29,Wunderground v.1.15,2013-01-30 16:40:00,
2013-01-30 11:50:00,52.2,51.1,29.28,SSE,168,2.0,2.0,96,0.00,,,0.29,Wunderground v.1.15,2013-01-30 16:50:00,
2013-01-30 11:55:00,52.4,51.0,29.28,SW,229,2.0,2.0,95,0.00,,,0.29,Wunderground v.1.15,2013-01-30 16:55:00,
2013-01-30 12:05:00,52.6,51.2,29.28,South,181,2.0,6.0,95,0.00,,,0.29,Wunderground v.1.15,2013-01-30 17:05:00,
2013-01-30 12:10:00,52.8,51.1,29.27,SE,138,2.0,2.0,94,0.00,,,0.29,Wunderground v.1.15,2013-01-30 17:10:00,
2013-01-30 12:20:00,53.6,51.6,29.28,WSW,248,2.0,2.0,93,0.00,,,0.29,Wunderground v.1.15,2013-01-30 17:20:00,
2013-01-30 12:25:00,53.5,51.5,29.28,West,274,3.0,5.0,93,0.00,,,0.29,Wunderground v.1.15,2013-01-30 17:25:00,
2013-01-30 12:30:00,53.4,51.1,29.28,SSW,208,2.0,2.0,92,0.00,,,0.29,Wunderground v.1.15,2013-01-30 17:30:00,
2013-01-30 12:35:00,53.2,50.9,29.27,West,263,3.0,3.0,92,0.00,,,0.29,Wunderground v.1.15,2013-01-30 17:35:00,
2013-01-30 12:40:00,53.2,50.6,29.26,SSE,158,4.0,4.0,91,0.00,,,0.29,Wunderground v.1.15,2013-01-30 17:40:00,
2013-01-30 12:45:00,53.0,50.7,29.25,SW,222,3.0,4.0,92,0.00,,,0.29,Wunderground v.1.15,2013-01-30 17:45:00,
2013-01-30 12:50:00,53.0,50.4,29.25,West,266,3.0,3.0,91,0.00,,,0.29,Wunderground v.1.15,2013-01-30 17:50:00,
2013-01-30 13:00:00,52.8,50.2,29.23,SE,131,3.0,5.0,91,0.00,,,0.29,Wunderground v.1.15,2013-01-30 18:00:00,
2013-01-30 13:05:00,52.7,50.1,29.23,WNW,284,2.0,5.0,91,0.00,,,0.29,Wunderground v.1.15,2013-01-30 18:05:00,
2013-01-30 13:15:00,52.8,50.2,29.24,WSW,246,3.0,3.0,91,0.00,,,0.29,Wunderground v.1.15,2013-01-30 18:15:00,
2013-01-30 13:20:00,52.8,50.2,29.24,West,271,3.0,3.0,91,0.00,,,0.29,Wunderground v.1.15,2013-01-30 18:20:00,
2013-01-30 13:25:00,52.9,50.0,29.24,West,263,3.0,3.0,90,0.00,,,0.29,Wunderground v.1.15,2013-01-30 18:25:00,
2013-01-30 13:35:00,52.8,49.9,29.24,SW,229,5.0,5.0,90,0.00,,,0.29,Wunderground v.1.15,2013-01-30 18:35:00,
2013-01-30 13:40:00,52.8,49.9,29.24,SSW,204,4.0,4.0,90,0.00,,,0.29,Wunderground v.1.15,2013-01-30 18:40:00,
2013-01-30 13:50:00,52.6,49.8,29.25,WSW,255,4.0,4.0,90,0.00,,,0.29,Wunderground v.1.15,2013-01-30 18:50:00,
2013-01-30 13:55:00,52.6,49.8,29.24,NW,304,4.0,4.0,90,0.00,,,0.29,Wunderground v.1.15,2013-01-30 18:55:00,
2013-01-30 14:00:00,52.6,50.0,29.24,SW,225,5.0,5.0,91,0.00,,,0.29,Wunderground v.1.15,2013-01-30 19:00:00,
2013-01-30 14:10:00,52.6,49.8,29.24,South,175,4.0,4.0,90,0.00,,,0.29,Wunderground v.1.15,2013-01-30 19:10:00,
2013-01-30 14:15:00,52.7,49.8,29.24,WNW,283,5.0,5.0,90,0.00,,,0.29,Wunderground v.1.15,2013-01-30 19:15:00,
2013-01-30 14:20:00,52.7,49.8,29.23,SW,231,4.0,4.0,90,0.00,,,0.29,Wunderground v.1.15,2013-01-30 19:20:00,
2013-01-30 14:25:00,52.7,49.8,29.22,SSW,207,4.0,4.0,90,0.00,,,0.29,Wunderground v.1.15,2013-01-30 19:25:00,
2013-01-30 14:35:00,52.7,49.8,29.21,SW,225,4.0,5.0,90,0.00,,,0.29,Wunderground v.1.15,2013-01-30 19:35:00,
2013-01-30 14:40:00,52.7,49.8,29.22,SW,225,3.0,3.0,90,0.00,,,0.29,Wunderground v.1.15,2013-01-30 19:40:00,
2013-01-30 14:45:00,52.6,49.8,29.21,ESE,110,3.0,3.0,90,0.00,,,0.29,Wunderground v.1.15,2013-01-30 19:45:00,
2013-01-30 14:50:00,52.6,50.0,29.22,WSW,246,3.0,3.0,91,0.00,,,0.29,Wunderground v.1.15,2013-01-30 19:50:00,
2013-01-30 15:00:00,52.3,50.0,29.20,ESE,117,4.0,4.0,92,0.00,,,0.29,Wunderground v.1.15,2013-01-30 20:00:00,
2013-01-30 15:05:00,52.2,49.9,29.21,WSW,255,3.0,4.0,92,0.00,,,0.29,Wunderground v.1.15,2013-01-30 20:05:00,
2013-01-30 15:15:00,52.3,50.3,29.22,NW,308,3.0,3.0,93,0.00,,,0.29,Wunderground v.1.15,2013-01-30 20:15:00,
2013-01-30 15:20:00,52.4,50.1,29.21,South,181,4.0,6.0,92,0.00,,,0.29,Wunderground v.1.15,2013-01-30 20:20:00,
2013-01-30 15:25:00,52.5,50.2,29.19,South,187,4.0,6.0,92,0.00,,,0.29,Wunderground v.1.15,2013-01-30 20:25:00,
2013-01-30 15:35:00,52.5,50.2,29.17,South,170,4.0,5.0,92,0.00,,,0.29,Wunderground v.1.15,2013-01-30 20:35:00,
2013-01-30 15:40:00,52.5,50.2,29.16,SSW,210,3.0,3.0,92,0.00,,,0.29,Wunderground v.1.15,2013-01-30 20:40:00,
2013-01-30 15:45:00,52.3,50.0,29.16,WSW,246,3.0,3.0,92,0.00,,,0.29,Wunderground v.1.15,2013-01-30 20:45:00,
2013-01-30 15:50:00,52.3,50.3,29.17,SSW,200,3.0,8.0,93,0.00,,,0.29,Wunderground v.1.15,2013-01-30 20:50:00,
2013-01-30 15:55:00,52.2,50.5,29.18,SSW,205,4.0,8.0,94,0.00,,,0.29,Wunderground v.1.15,2013-01-30 20:55:00,
2013-01-30 16:05:00,51.9,50.5,29.20,NE,39,2.0,4.0,95,0.00,,,0.29,Wunderground v.1.15,2013-01-30 21:05:00,
2013-01-30 16:10:00,51.8,50.4,29.20,West,269,2.0,2.0,95,0.00,,,0.30,Wunderground v.1.15,2013-01-30 21:10:00,
2013-01-30 16:15:00,51.6,50.2,29.20,SSE,155,3.0,5.0,95,0.09,,,0.31,Wunderground v.1.15,2013-01-30 21:15:00,
2013-01-30 16:20:00,51.5,49.5,29.20,SW,229,6.0,6.0,93,0.08,,,0.31,Wunderground v.1.15,2013-01-30 21:20:00,
2013-01-30 16:25:00,51.4,49.4,29.19,ESE,103,7.0,7.0,93,0.05,,,0.31,Wunderground v.1.15,2013-01-30 21:25:00,
2013-01-30 16:35:00,51.0,49.3,29.19,WSW,252,5.0,6.0,94,0.00,,,0.31,Wunderground v.1.15,2013-01-30 21:35:00,
2013-01-30 16:40:00,50.8,49.1,29.18,SE,142,4.0,4.0,94,0.00,,,0.31,Wunderground v.1.15,2013-01-30 21:40:00,
2013-01-30 16:45:00,50.8,49.1,29.17,SW,229,3.0,4.0,94,0.00,,,0.31,Wunderground v.1.15,2013-01-30 21:45:00,
2013-01-30 16:50:00,50.8,49.4,29.18,SSW,204,2.0,5.0,95,0.00,,,0.31,Wunderground v.1.15,2013-01-30 21:50:00,
2013-01-30 16:55:00,50.9,49.2,29.18,West,273,3.0,5.0,94,0.00,,,0.31,Wunderground v.1.15,2013-01-30 21:55:00,
2013-01-30 17:05:00,50.9,48.9,29.17,SSW,193,3.0,4.0,93,0.00,,,0.31,Wunderground v.1.15,2013-01-30 22:05:00,
2013-01-30 17:10:00,50.9,48.9,29.16,SSE,158,2.0,2.0,93,0.00,,,0.31,Wunderground v.1.15,2013-01-30 22:10:00,
2013-01-30 17:15:00,50.9,48.7,29.17,SW,219,3.0,5.0,92,0.00,,,0.31,Wunderground v.1.15,2013-01-30 22:15:00,
2013-01-30 17:20:00,50.8,48.6,29.16,SE,137,3.0,3.0,92,0.00,,,0.31,Wunderground v.1.15,2013-01-30 22:20:00,
2013-01-30 17:30:00,50.7,48.5,29.15,SW,232,3.0,6.0,92,0.00,,,0.31,Wunderground v.1.15,2013-01-30 22:30:00,
2013-01-30 17:35:00,50.6,48.7,29.15,SSW,211,3.0,6.0,93,0.00,,,0.31,Wunderground v.1.15,2013-01-30 22:35:00,
2013-01-30 17:40:00,50.6,48.7,29.16,SW,228,3.0,3.0,93,0.00,,,0.31,Wunderground v.1.15,2013-01-30 22:40:00,
2013-01-30 17:45:00,50.5,48.6,29.16,SSW,194,4.0,6.0,93,0.00,,,0.31,Wunderground v.1.15,2013-01-30 22:45:00,
2013-01-30 17:50:00,50.6,48.7,29.15,WSW,252,4.0,4.0,93,0.00,,,0.31,Wunderground v.1.15,2013-01-30 22:50:00,
2013-01-30 18:00:00,50.5,48.6,29.15,West,262,3.0,3.0,93,0.00,,,0.31,Wunderground v.1.15,2013-01-30 23:00:00,
2013-01-30 18:05:00,50.5,48.6,29.14,WSW,238,3.0,3.0,93,0.00,,,0.31,Wunderground v.1.15,2013-01-30 23:05:00,
2013-01-30 18:10:00,50.5,48.6,29.14,SSW,210,4.0,7.0,93,0.00,,,0.32,Wunderground v.1.15,2013-01-30 23:10:00,
2013-01-30 18:15:00,50.3,48.6,29.15,South,188,3.0,7.0,94,0.08,,,0.33,Wunderground v.1.15,2013-01-30 23:15:00,
2013-01-30 18:20:00,50.1,48.4,29.14,SSE,158,3.0,4.0,94,0.14,,,0.34,Wunderground v.1.15,2013-01-30 23:20:00,
2013-01-30 18:25:00,50.0,48.6,29.14,South,176,4.0,4.0,95,0.29,,,0.37,Wunderground v.1.15,2013-01-30 23:25:00,
2013-01-30 18:35:00,49.9,48.5,29.14,West,277,4.0,5.0,95,1.32,,,0.43,Wunderground v.1.15,2013-01-30 23:35:00,
2013-01-30 18:40:00,49.4,47.2,29.15,West,264,5.0,10.0,92,0.26,,,0.46,Wunderground v.1.15,2013-01-30 23:40:00,
2013-01-30 18:45:00,47.3,44.2,29.16,WNW,300,7.0,10.0,89,0.11,,,0.46,Wunderground v.1.15,2013-01-30 23:45:00,
2013-01-30 18:50:00,46.1,43.3,29.16,WNW,285,6.0,6.0,90,0.10,,,0.47,Wunderground v.1.15,2013-01-30 23:50:00,
2013-01-30 18:55:00,45.4,43.2,29.15,WNW,300,4.0,6.0,92,0.12,,,0.48,Wunderground v.1.15,2013-01-30 23:55:00,
2013-01-30 19:05:00,44.6,42.4,29.15,WNW,290,2.0,4.0,92,0.08,,,0.49,Wunderground v.1.15,2013-01-31 00:05:00,
2013-01-30 19:10:00,44.5,42.6,29.14,WNW,285,3.0,4.0,93,0.05,,,0.49,Wunderground v.1.15,2013-01-31 00:10:00,
2013-01-30 19:15:00,44.4,42.2,29.15,WSW,239,3.0,8.0,92,0.05,,,0.50,Wunderground v.1.15,2013-01-31 00:15:00,
2013-01-30 19:20:00,44.3,42.4,29.16,West,260,3.0,3.0,93,0.05,,,0.50,Wunderground v.1.15,2013-01-31 00:20:00,
2013-01-30 19:25:00,44.1,42.2,29.16,ESE,110,3.0,3.0,93,0.05,,,0.51,Wunderground v.1.15,2013-01-31 00:25:00,
2013-01-30 19:35:00,43.9,42.0,29.14,SW,225,3.0,3.0,93,0.05,,,0.51,Wunderground v.1.15,2013-01-31 00:35:00,
2013-01-30 19:40:00,43.7,41.8,29.15,WSW,253,3.0,5.0,93,0.00,,,0.52,Wunderground v.1.15,2013-01-31 00:40:00,
2013-01-30 19:45:00,43.6,41.4,29.15,West,267,4.0,5.0,92,0.00,,,0.52,Wunderground v.1.15,2013-01-31 00:45:00,
2013-01-30 19:50:00,43.5,41.3,29.16,WSW,249,4.0,4.0,92,0.00,,,0.52,Wunderground v.1.15,2013-01-31 00:50:00,
2013-01-30 19:55:00,43.2,41.3,29.17,SW,218,3.0,4.0,93,0.00,,,0.52,Wunderground v.1.15,2013-01-31 00:55:00,
2013-01-30 20:05:00,43.1,40.9,29.17,WSW,238,5.0,8.0,92,0.00,,,0.52,Wunderground v.1.15,2013-01-31 01:05:00,
2013-01-30 20:10:00,42.9,40.7,29.15,WSW,243,5.0,5.0,92,0.00,,,0.53,Wunderground v.1.15,2013-01-31 01:10:00,
2013-01-30 20:15:00,42.7,40.8,29.16,WNW,283,4.0,5.0,93,0.00,,,0.53,Wunderground v.1.15,2013-01-31 01:15:00,
2013-01-30 20:20:00,42.3,40.1,29.16,SSW,210,5.0,5.0,92,0.05,,,0.54,Wunderground v.1.15,2013-01-31 01:20:00,
2013-01-30 20:30:00,41.0,38.3,29.16,SW,229,7.0,11.0,90,0.05,,,0.54,Wunderground v.1.15,2013-01-31 01:30:00,
2013-01-30 20:40:00,39.9,37.5,29.17,WSW,242,6.0,8.0,91,0.00,,,0.54,Wunderground v.1.15,2013-01-31 01:40:00,
2013-01-30 20:45:00,39.6,37.2,29.16,West,259,5.0,8.0,91,0.00,,,0.54,Wunderground v.1.15,2013-01-31 01:45:00,
2013-01-30 20:50:00,39.3,37.2,29.17,South,186,4.0,4.0,92,0.00,,,0.54,Wunderground v.1.15,2013-01-31 01:50:00,
2013-01-30 20:55:00,39.1,37.0,29.16,SW,236,4.0,5.0,92,0.00,,,0.54,Wunderground v.1.15,2013-01-31 01:55:00,
2013-01-30 21:00:00,38.9,36.8,29.17,SW,222,3.0,3.0,92,0.00,,,0.54,Wunderground v.1.15,2013-01-31 02:00:00,
2013-01-30 21:10:00,38.7,36.6,29.17,WSW,246,5.0,7.0,92,0.00,,,0.54,Wunderground v.1.15,2013-01-31 02:10:00,
2013-01-30 21:15:00,38.7,36.3,29.16,WSW,247,5.0,7.0,91,0.00,,,0.54,Wunderground v.1.15,2013-01-31 02:15:00,
2013-01-30 21:20:00,38.6,36.2,29.17,WSW,244,5.0,5.0,91,0.00,,,0.54,Wunderground v.1.15,2013-01-31 02:20:00,
2013-01-30 21:25:00,38.5,36.1,29.17,SW,224,4.0,5.0,91,0.00,,,0.54,Wunderground v.1.15,2013-01-31 02:25:00,
2013-01-30 21:30:00,38.4,36.0,29.17,West,260,4.0,4.0,91,0.00,,,0.54,Wunderground v.1.15,2013-01-31 02:30:00,
2013-01-30 21:40:00,38.3,35.9,29.16,West,276,4.0,4.0,91,0.00,,,0.54,Wunderground v.1.15,2013-01-31 02:40:00,
2013-01-30 21:45:00,38.3,35.9,29.16,West,271,4.0,4.0,91,0.00,,,0.54,Wunderground v.1.15,2013-01-31 02:45:00,
2013-01-30 21:50:00,38.1,35.7,29.16,West,259,3.0,3.0,91,0.00,,,0.54,Wunderground v.1.15,2013-01-31 02:50:00,
2013-01-30 21:55:00,38.1,35.7,29.17,WSW,249,2.0,3.0,91,0.00,,,0.54,Wunderground v.1.15,2013-01-31 02:55:00,
2013-01-30 22:00:00,38.0,35.3,29.17,SSW,205,3.0,3.0,90,0.00,,,0.54,Wunderground v.1.15,2013-01-31 03:00:00,
2013-01-30 22:10:00,38.1,35.4,29.17,SW,235,4.0,5.0,90,0.00,,,0.54,Wunderground v.1.15,2013-01-31 03:10:00,
2013-01-30 22:20:00,38.0,35.0,29.17,NW,308,3.0,3.0,89,0.00,,,0.54,Wunderground v.1.15,2013-01-31 03:20:00,
2013-01-30 22:25:00,38.0,35.0,29.17,WSW,238,3.0,3.0,89,0.00,,,0.54,Wunderground v.1.15,2013-01-31 03:25:00,
2013-01-30 22:30:00,38.0,35.0,29.17,SSW,210,4.0,4.0,89,0.00,,,0.54,Wunderground v.1.15,2013-01-31 03:30:00,
2013-01-30 22:35:00,37.6,35.2,29.17,West,271,5.0,6.0,91,0.00,,,0.55,Wunderground v.1.15,2013-01-31 03:35:00,
2013-01-30 22:40:00,37.4,35.3,29.19,WNW,285,4.0,5.0,92,0.00,,,0.55,Wunderground v.1.15,2013-01-31 03:40:00,
2013-01-30 22:50:00,35.9,33.0,29.20,WNW,284,6.0,6.0,89,0.00,,,0.55,Wunderground v.1.15,2013-01-31 03:50:00,
2013-01-30 23:00:00,35.4,32.5,29.20,WNW,283,6.0,6.0,89,0.00,,,0.55,Wunderground v.1.15,2013-01-31 04:00:00,
2013-01-30 23:05:00,35.1,32.2,29.20,WNW,284,6.0,8.0,89,0.00,,,0.55,Wunderground v.1.15,2013-01-31 04:05:00,
2013-01-30 23:10:00,34.8,31.6,29.21,WSW,240,6.0,6.0,88,0.00,,,0.55,Wunderground v.1.15,2013-01-31 04:10:00,
2013-01-30 23:15:00,34.6,31.7,29.21,WNW,285,5.0,6.0,89,0.00,,,0.55,Wunderground v.1.15,2013-01-31 04:15:00,
2013-01-30 23:25:00,34.1,30.9,29.22,WSW,252,5.0,5.0,88,0.00,,,0.55,Wunderground v.1.15,2013-01-31 04:25:00,
2013-01-30 23:30:00,33.8,30.6,29.23,WNW,291,6.0,6.0,88,0.00,,,0.55,Wunderground v.1.15,2013-01-31 04:30:00,
2013-01-30 23:35:00,33.5,30.3,29.24,SSE,150,6.0,6.0,88,0.00,,,0.55,Wunderground v.1.15,2013-01-31 04:35:00,
2013-01-30 23:40:00,33.3,30.1,29.24,WSW,256,5.0,5.0,88,0.00,,,0.55,Wunderground v.1.15,2013-01-31 04:40:00,
2013-01-30 23:45:00,33.1,29.4,29.24,WSW,250,5.0,6.0,86,0.00,,,0.55,Wunderground v.1.15,2013-01-31 04:45:00,
2013-01-30 23:50:00,32.9,29.5,29.25,WNW,284,6.0,7.0,87,0.00,,,0.55,Wunderground v.1.15,2013-01-31 04:50:00,